createdAt,value
2018-07-01T00:00:42.039Z,62.26
2018-07-01T00:01:42.194Z,66.41
2018-07-01T00:02:42.344Z,66.65
2018-07-01T00:03:42.497Z,64.94
2018-07-01T00:04:42.655Z,66.41
2018-07-01T00:05:42.805Z,68.60
2018-07-01T00:06:42.957Z,67.87
2018-07-01T00:07:43.112Z,69.58
2018-07-01T00:08:43.261Z,65.19
2018-07-01T00:09:43.415Z,68.60
2018-07-01T00:10:43.584Z,69.82
2018-07-01T00:11:43.718Z,66.65
2018-07-01T00:12:43.873Z,70.80
2018-07-01T00:13:44.022Z,71.78
2018-07-01T00:14:44.174Z,69.09
2018-07-01T00:15:44.324Z,63.23
2018-07-01T00:16:44.479Z,67.87
2018-07-01T00:17:44.631Z,69.58
2018-07-01T00:18:44.782Z,70.07
2018-07-01T00:19:44.936Z,65.92
2018-07-01T00:20:45.090Z,68.85
2018-07-01T00:21:45.243Z,70.56
2018-07-01T00:22:45.393Z,69.58
2018-07-01T00:23:45.548Z,66.41
2018-07-01T00:24:45.698Z,67.87
2018-07-01T00:25:45.850Z,68.85
2018-07-01T00:26:46.001Z,70.80
2018-07-01T00:27:46.154Z,68.85
2018-07-01T00:28:46.303Z,65.19
2018-07-01T00:29:46.455Z,68.12
2018-07-01T00:30:46.613Z,67.87
2018-07-01T00:31:46.764Z,67.63
2018-07-01T00:32:46.917Z,70.80
2018-07-01T00:33:47.069Z,67.87
2018-07-01T00:34:47.221Z,70.56
2018-07-01T00:35:47.373Z,69.58
2018-07-01T00:36:47.526Z,70.80
2018-07-01T00:37:47.676Z,68.12
2018-07-01T00:38:47.826Z,65.43
2018-07-01T00:39:47.979Z,70.80
2018-07-01T00:40:48.131Z,64.45
2018-07-01T00:41:48.284Z,70.31
2018-07-01T00:42:48.435Z,70.31
2018-07-01T00:43:48.589Z,68.36
2018-07-01T00:44:48.739Z,70.07
2018-07-01T00:45:48.896Z,65.19
2018-07-01T00:46:49.050Z,63.48
2018-07-01T00:47:49.197Z,66.65
2018-07-01T00:48:49.348Z,69.34
2018-07-01T00:49:49.502Z,70.31
2018-07-01T00:50:49.654Z,63.96
2018-07-01T00:51:49.804Z,70.07
2018-07-01T00:52:49.956Z,58.59
2018-07-01T00:53:50.112Z,70.80
2018-07-01T00:54:50.260Z,66.41
2018-07-01T00:55:50.412Z,71.04
2018-07-01T00:56:50.565Z,68.85
2018-07-01T00:57:50.717Z,72.75
2018-07-01T00:58:50.867Z,70.80
2018-07-01T00:59:51.021Z,70.07
2018-07-01T01:00:51.171Z,71.04
2018-07-01T01:01:51.324Z,66.65
2018-07-01T01:02:51.477Z,70.80
2018-07-01T01:03:51.629Z,72.27
2018-07-01T01:04:51.781Z,67.14
2018-07-01T01:05:51.934Z,69.09
2018-07-01T01:06:52.083Z,70.56
2018-07-01T01:07:52.237Z,69.82
2018-07-01T01:08:52.390Z,65.92
2018-07-01T01:09:52.544Z,68.85
2018-07-01T01:10:52.693Z,73.73
2018-07-01T01:11:52.845Z,68.60
2018-07-01T01:12:52.999Z,67.87
2018-07-01T01:13:53.152Z,66.89
2018-07-01T01:14:53.300Z,67.38
2018-07-01T01:15:53.453Z,64.70
2018-07-01T01:16:53.603Z,61.28
2018-07-01T01:17:53.754Z,72.75
2018-07-01T01:18:53.905Z,71.53
2018-07-01T01:19:54.063Z,69.09
2018-07-01T01:20:54.211Z,67.87
2018-07-01T01:21:54.362Z,67.14
2018-07-01T01:22:54.513Z,69.82
2018-07-01T01:23:54.663Z,74.22
2018-07-01T01:24:54.816Z,71.29
2018-07-01T01:25:54.967Z,70.80
2018-07-01T01:26:55.117Z,70.07
2018-07-01T01:27:55.269Z,70.56
2018-07-01T01:28:55.420Z,69.82
2018-07-01T01:29:55.573Z,71.29
2018-07-01T01:30:55.724Z,66.65
2018-07-01T01:31:55.878Z,68.12
2018-07-01T01:32:56.026Z,67.87
2018-07-01T01:33:56.178Z,69.34
2018-07-01T01:34:56.332Z,67.63
2018-07-01T01:35:56.483Z,67.14
2018-07-01T01:36:56.634Z,68.36
2018-07-01T01:37:56.784Z,65.43
2018-07-01T01:38:56.935Z,65.67
2018-07-01T01:39:57.089Z,67.87
2018-07-01T01:40:57.238Z,69.09
2018-07-01T01:41:57.390Z,68.12
2018-07-01T01:42:57.543Z,72.02
2018-07-01T01:43:57.693Z,66.41
2018-07-01T01:44:57.844Z,69.82
2018-07-01T01:45:57.995Z,69.82
2018-07-01T01:46:58.149Z,69.82
2018-07-01T01:47:58.303Z,70.31
2018-07-01T01:48:58.457Z,70.56
2018-07-01T01:49:58.606Z,74.22
2018-07-01T01:50:58.759Z,73.49
2018-07-01T01:51:58.908Z,73.97
2018-07-01T01:52:59.061Z,71.78
2018-07-01T01:53:59.210Z,69.58
2018-07-01T01:54:59.363Z,65.67
2018-07-01T01:55:59.513Z,66.89
2018-07-01T01:56:59.665Z,69.09
2018-07-01T01:57:59.816Z,65.19
2018-07-01T01:58:59.967Z,66.89
2018-07-01T02:00:00.120Z,69.09
2018-07-01T02:01:00.274Z,62.50
2018-07-01T02:02:00.423Z,68.85
2018-07-01T02:03:00.576Z,67.87
2018-07-01T02:04:00.727Z,75.93
2018-07-01T02:05:00.878Z,69.82
2018-07-01T02:06:01.029Z,72.02
2018-07-01T02:07:01.178Z,69.09
2018-07-01T02:08:01.331Z,67.63
2018-07-01T02:09:01.484Z,70.80
2018-07-01T02:10:01.633Z,69.58
2018-07-01T02:11:01.781Z,70.07
2018-07-01T02:12:01.936Z,69.82
2018-07-01T02:13:02.094Z,68.60
2018-07-01T02:14:02.235Z,70.56
2018-07-01T02:15:02.389Z,68.12
2018-07-01T02:16:02.538Z,72.02
2018-07-01T02:17:02.688Z,70.56
2018-07-01T02:18:02.840Z,68.60
2018-07-01T02:19:02.990Z,72.75
2018-07-01T02:20:03.147Z,69.82
2018-07-01T02:21:03.298Z,68.85
2018-07-01T02:22:03.447Z,67.63
2018-07-01T02:23:03.601Z,69.34
2018-07-01T02:24:03.752Z,68.12
2018-07-01T02:25:03.903Z,69.34
2018-07-01T02:26:04.053Z,68.12
2018-07-01T02:27:04.204Z,65.92
2018-07-01T02:28:04.354Z,70.31
2018-07-01T02:29:04.504Z,65.67
2018-07-01T02:30:04.656Z,63.48
2018-07-01T02:31:04.838Z,73.24
2018-07-01T02:32:04.993Z,68.60
2018-07-01T02:33:05.138Z,70.31
2018-07-01T02:34:05.288Z,71.53
2018-07-01T02:35:05.436Z,68.85
2018-07-01T02:36:05.590Z,70.07
2018-07-01T02:37:05.741Z,69.82
2018-07-01T02:38:05.891Z,69.58
2018-07-01T02:39:06.042Z,65.67
2018-07-01T02:40:06.193Z,60.79
2018-07-01T02:41:06.345Z,69.82
2018-07-01T02:42:06.557Z,70.07
2018-07-01T02:43:06.645Z,69.58
2018-07-01T02:44:06.796Z,70.56
2018-07-01T02:45:06.946Z,67.38
2018-07-01T02:46:07.097Z,70.31
2018-07-01T02:47:07.259Z,66.65
2018-07-01T02:48:07.403Z,66.16
2018-07-01T02:49:07.559Z,67.38
2018-07-01T02:50:07.701Z,65.67
2018-07-01T02:51:07.851Z,68.60
2018-07-01T02:52:08.015Z,70.56
2018-07-01T02:53:08.157Z,67.87
2018-07-01T02:54:08.307Z,67.87
2018-07-01T02:55:08.459Z,73.49
2018-07-01T02:56:08.610Z,67.87
2018-07-01T02:57:08.757Z,71.04
2018-07-01T02:58:08.912Z,73.24
2018-07-01T02:59:09.060Z,70.80
2018-07-01T03:00:09.213Z,72.27
2018-07-01T03:01:09.366Z,67.63
2018-07-01T03:02:09.516Z,68.12
2018-07-01T03:03:09.665Z,66.16
2018-07-01T03:04:09.818Z,73.49
2018-07-01T03:05:09.970Z,69.82
2018-07-01T03:06:10.121Z,66.65
2018-07-01T03:07:10.274Z,71.04
2018-07-01T03:08:10.424Z,69.34
2018-07-01T03:09:10.577Z,66.89
2018-07-01T03:10:10.727Z,70.07
2018-07-01T03:11:10.878Z,74.22
2018-07-01T03:12:11.030Z,69.82
2018-07-01T03:13:11.181Z,71.53
2018-07-01T03:14:11.326Z,66.16
2018-07-01T03:15:11.476Z,68.36
2018-07-01T03:16:11.631Z,69.34
2018-07-01T03:17:11.779Z,70.80
2018-07-01T03:18:11.928Z,69.34
2018-07-01T03:19:12.084Z,70.31
2018-07-01T03:20:12.234Z,67.38
2018-07-01T03:21:12.391Z,71.04
2018-07-01T03:22:12.544Z,69.58
2018-07-01T03:23:12.692Z,72.51
2018-07-01T03:24:12.844Z,72.75
2018-07-01T03:25:12.994Z,70.07
2018-07-01T03:26:13.145Z,68.60
2018-07-01T03:27:13.296Z,68.85
2018-07-01T03:28:13.447Z,69.34
2018-07-01T03:29:13.598Z,67.38
2018-07-01T03:30:13.763Z,68.60
2018-07-01T03:31:13.923Z,70.80
2018-07-01T03:32:14.071Z,69.34
2018-07-01T03:33:14.215Z,66.89
2018-07-01T03:34:14.383Z,70.07
2018-07-01T03:35:14.518Z,67.87
2018-07-01T03:36:14.670Z,69.82
2018-07-01T03:37:14.818Z,68.36
2018-07-01T03:38:14.970Z,72.75
2018-07-01T03:39:15.122Z,67.38
2018-07-01T03:40:15.272Z,69.82
2018-07-01T03:41:15.429Z,69.82
2018-07-01T03:42:15.575Z,69.82
2018-07-01T03:43:15.724Z,68.60
2018-07-01T03:44:15.874Z,68.12
2018-07-01T03:45:16.027Z,68.85
2018-07-01T03:46:16.181Z,72.27
2018-07-01T03:47:16.328Z,68.36
2018-07-01T03:48:16.480Z,70.31
2018-07-01T03:49:16.630Z,71.04
2018-07-01T03:50:16.808Z,70.80
2018-07-01T03:51:16.937Z,68.12
2018-07-01T03:52:17.085Z,68.60
2018-07-01T03:53:17.236Z,68.12
2018-07-01T03:54:17.385Z,70.31
2018-07-01T03:55:17.537Z,68.85
2018-07-01T03:56:17.688Z,69.09
2018-07-01T03:57:17.841Z,67.14
2018-07-01T03:58:17.988Z,68.36
2018-07-01T03:59:18.141Z,72.75
2018-07-01T04:00:18.291Z,71.53
2018-07-01T04:01:18.444Z,68.85
2018-07-01T04:02:18.599Z,73.00
2018-07-01T04:03:18.745Z,67.14
2018-07-01T04:04:18.897Z,73.24
2018-07-01T04:05:19.051Z,68.36
2018-07-01T04:06:19.198Z,67.38
2018-07-01T04:07:19.349Z,69.34
2018-07-01T04:08:19.501Z,69.34
2018-07-01T04:09:19.650Z,70.07
2018-07-01T04:10:19.802Z,69.34
2018-07-01T04:11:19.952Z,70.07
2018-07-01T04:12:20.104Z,69.82
2018-07-01T04:13:20.253Z,68.36
2018-07-01T04:14:20.405Z,72.75
2018-07-01T04:15:20.557Z,72.02
2018-07-01T04:16:20.705Z,72.27
2018-07-01T04:17:20.859Z,71.29
2018-07-01T04:18:21.012Z,70.56
2018-07-01T04:19:21.159Z,69.82
2018-07-01T04:20:21.309Z,68.85
2018-07-01T04:21:21.461Z,73.24
2018-07-01T04:22:21.614Z,69.82
2018-07-01T04:23:21.763Z,68.85
2018-07-01T04:24:21.915Z,71.29
2018-07-01T04:25:22.069Z,69.34
2018-07-01T04:26:22.218Z,73.00
2018-07-01T04:27:22.373Z,71.29
2018-07-01T04:28:22.522Z,70.07
2018-07-01T04:29:22.671Z,69.58
2018-07-01T04:30:22.822Z,69.82
2018-07-01T04:31:23.024Z,71.29
2018-07-01T04:32:23.121Z,70.07
2018-07-01T04:33:23.276Z,70.80
2018-07-01T04:34:23.423Z,71.04
2018-07-01T04:35:23.576Z,70.80
2018-07-01T04:36:23.730Z,69.82
2018-07-01T04:37:23.879Z,70.07
2018-07-01T04:38:24.034Z,68.12
2018-07-01T04:39:24.184Z,68.12
2018-07-01T04:40:24.335Z,71.04
2018-07-01T04:41:24.489Z,70.56
2018-07-01T04:42:24.640Z,70.07
2018-07-01T04:43:24.792Z,70.80
2018-07-01T04:44:24.943Z,71.29
2018-07-01T04:45:25.094Z,73.00
2018-07-01T04:46:25.249Z,70.80
2018-07-01T04:47:25.401Z,69.34
2018-07-01T04:48:25.552Z,68.60
2018-07-01T04:49:25.706Z,69.34
2018-07-01T04:50:25.856Z,69.34
2018-07-01T04:51:26.010Z,70.56
2018-07-01T04:52:26.160Z,71.29
2018-07-01T04:53:26.311Z,70.31
2018-07-01T04:54:26.468Z,69.82
2018-07-01T04:55:26.676Z,69.82
2018-07-01T04:56:26.769Z,70.56
2018-07-01T04:57:26.919Z,67.63
2018-07-01T04:58:27.070Z,69.58
2018-07-01T04:59:27.220Z,73.00
2018-07-01T05:00:27.376Z,73.00
2018-07-01T05:01:27.525Z,69.09
2018-07-01T05:02:27.767Z,68.60
2018-07-01T05:03:27.826Z,72.75
2018-07-01T05:04:27.979Z,69.34
2018-07-01T05:05:28.130Z,71.29
2018-07-01T05:06:28.283Z,71.53
2018-07-01T05:07:28.435Z,72.02
2018-07-01T05:08:28.587Z,74.22
2018-07-01T05:09:28.736Z,71.53
2018-07-01T05:10:28.887Z,70.07
2018-07-01T05:11:29.041Z,68.60
2018-07-01T05:12:29.194Z,69.58
2018-07-01T05:13:29.345Z,71.04
2018-07-01T05:14:29.498Z,71.78
2018-07-01T05:15:29.648Z,67.87
2018-07-01T05:16:29.798Z,68.85
2018-07-01T05:17:29.951Z,68.36
2018-07-01T05:18:30.105Z,67.63
2018-07-01T05:19:30.252Z,69.09
2018-07-01T05:20:30.409Z,71.53
2018-07-01T05:21:30.556Z,69.34
2018-07-01T05:22:30.710Z,69.82
2018-07-01T05:23:30.860Z,68.60
2018-07-01T05:24:31.014Z,70.07
2018-07-01T05:25:31.166Z,68.85
2018-07-01T05:26:31.323Z,70.80
2018-07-01T05:27:31.516Z,68.85
2018-07-01T05:28:31.632Z,70.56
2018-07-01T05:29:31.786Z,70.07
2018-07-01T05:30:31.937Z,69.58
2018-07-01T05:31:32.089Z,73.24
2018-07-01T05:32:32.241Z,73.00
2018-07-01T05:33:32.397Z,69.58
2018-07-01T05:34:32.546Z,69.58
2018-07-01T05:35:32.700Z,70.07
2018-07-01T05:36:32.852Z,71.29
2018-07-01T05:37:33.003Z,68.36
2018-07-01T05:38:33.158Z,72.27
2018-07-01T05:39:33.318Z,67.14
2018-07-01T05:40:33.487Z,69.58
2018-07-01T05:41:33.636Z,72.02
2018-07-01T05:42:33.789Z,69.09
2018-07-01T05:43:33.944Z,72.02
2018-07-01T05:44:34.097Z,72.27
2018-07-01T05:45:34.271Z,71.29
2018-07-01T05:46:34.426Z,72.51
2018-07-01T05:47:34.576Z,73.24
2018-07-01T05:48:34.759Z,71.53
2018-07-01T05:49:34.917Z,71.29
2018-07-01T05:50:35.046Z,68.60
2018-07-01T05:51:35.207Z,70.31
2018-07-01T05:52:35.361Z,71.04
2018-07-01T05:53:35.514Z,71.53
2018-07-01T05:54:35.670Z,68.85
2018-07-01T05:55:35.820Z,69.58
2018-07-01T05:56:35.980Z,72.02
2018-07-01T05:57:36.132Z,70.07
2018-07-01T05:58:36.288Z,70.56
2018-07-01T05:59:36.442Z,71.78
2018-07-01T06:00:36.608Z,71.29
2018-07-01T06:01:36.750Z,72.27
2018-07-01T06:02:36.908Z,71.04
2018-07-01T06:03:37.059Z,71.29
2018-07-01T06:04:37.214Z,70.07
2018-07-01T06:05:37.370Z,70.80
2018-07-01T06:06:37.522Z,74.71
2018-07-01T06:07:37.680Z,72.51
2018-07-01T06:08:37.846Z,72.51
2018-07-01T06:09:37.989Z,70.56
2018-07-01T06:10:38.148Z,70.80
2018-07-01T06:11:38.302Z,69.34
2018-07-01T06:12:38.455Z,78.13
2018-07-01T06:13:38.608Z,73.49
2018-07-01T06:14:38.761Z,72.75
2018-07-01T06:15:38.915Z,70.31
2018-07-01T06:16:39.094Z,69.58
2018-07-01T06:17:39.222Z,72.02
2018-07-01T06:18:39.382Z,69.09
2018-07-01T06:19:39.541Z,71.29
2018-07-01T06:20:39.692Z,68.60
2018-07-01T06:21:39.850Z,70.56
2018-07-01T06:22:40.004Z,73.24
2018-07-01T06:23:40.156Z,71.78
2018-07-01T06:24:40.336Z,70.80
2018-07-01T06:25:40.468Z,71.53
2018-07-01T06:26:40.622Z,70.31
2018-07-01T06:27:40.778Z,73.73
2018-07-01T06:28:40.931Z,72.02
2018-07-01T06:29:41.089Z,70.56
2018-07-01T06:30:41.240Z,71.04
2018-07-01T06:31:41.394Z,69.58
2018-07-01T06:32:41.564Z,71.53
2018-07-01T06:33:41.701Z,70.07
2018-07-01T06:34:41.858Z,70.80
2018-07-01T06:35:42.011Z,70.56
2018-07-01T06:36:42.164Z,69.58
2018-07-01T06:37:42.317Z,71.78
2018-07-01T06:38:42.475Z,73.73
2018-07-01T06:39:42.627Z,73.97
2018-07-01T06:40:42.781Z,73.00
2018-07-01T06:41:42.936Z,70.31
2018-07-01T06:42:43.090Z,71.04
2018-07-01T06:43:43.244Z,71.29
2018-07-01T06:44:43.400Z,72.27
2018-07-01T06:45:43.554Z,71.04
2018-07-01T06:46:43.711Z,71.04
2018-07-01T06:47:43.864Z,70.56
2018-07-01T06:48:44.023Z,73.00
2018-07-01T06:49:44.177Z,76.17
2018-07-01T06:50:44.446Z,73.73
2018-07-01T06:51:44.530Z,70.31
2018-07-01T06:52:44.684Z,71.78
2018-07-01T06:53:44.839Z,68.85
2018-07-01T06:54:44.992Z,70.31
2018-07-01T06:55:45.148Z,73.00
2018-07-01T06:56:45.304Z,71.53
2018-07-01T06:57:45.460Z,78.13
2018-07-01T06:58:45.616Z,71.53
2018-07-01T06:59:45.772Z,71.78
2018-07-01T07:00:45.925Z,71.78
2018-07-01T07:01:46.080Z,72.75
2018-07-01T07:02:46.238Z,72.02
2018-07-01T07:03:46.392Z,70.07
2018-07-01T07:04:46.549Z,70.80
2018-07-01T07:05:46.706Z,70.07
2018-07-01T07:06:46.858Z,70.07
2018-07-01T07:07:47.070Z,71.04
2018-07-01T07:08:47.176Z,73.24
2018-07-01T07:09:47.325Z,76.42
2018-07-01T07:10:47.478Z,73.00
2018-07-01T07:11:47.636Z,71.53
2018-07-01T07:12:47.788Z,70.80
2018-07-01T07:13:47.946Z,71.29
2018-07-01T07:14:48.097Z,78.61
2018-07-01T07:15:48.256Z,76.66
2018-07-01T07:16:48.420Z,80.32
2018-07-01T07:17:48.565Z,74.95
2018-07-01T07:18:48.721Z,73.49
2018-07-01T07:19:48.884Z,75.68
2018-07-01T07:20:49.040Z,73.00
2018-07-01T07:21:49.196Z,73.73
2018-07-01T07:22:49.352Z,71.29
2018-07-01T07:23:49.503Z,73.24
2018-07-01T07:24:49.659Z,75.44
2018-07-01T07:25:49.814Z,78.86
2018-07-01T07:26:49.972Z,72.75
2018-07-01T07:27:50.128Z,71.53
2018-07-01T07:28:50.281Z,73.73
2018-07-01T07:29:50.438Z,72.27
2018-07-01T07:30:50.594Z,74.46
2018-07-01T07:31:50.752Z,74.95
2018-07-01T07:32:50.907Z,72.27
2018-07-01T07:33:51.062Z,72.27
2018-07-01T07:34:51.217Z,75.44
2018-07-01T07:35:51.371Z,71.04
2018-07-01T07:36:51.534Z,73.49
2018-07-01T07:37:51.688Z,73.24
2018-07-01T07:38:51.837Z,70.56
2018-07-01T07:39:51.995Z,71.29
2018-07-01T07:40:52.149Z,70.31
2018-07-01T07:41:52.308Z,71.78
2018-07-01T07:42:52.464Z,70.56
2018-07-01T07:43:52.618Z,71.04
2018-07-01T07:44:52.829Z,71.04
2018-07-01T07:45:52.930Z,69.82
2018-07-01T07:46:53.094Z,74.71
2018-07-01T07:47:53.242Z,73.24
2018-07-01T07:48:53.397Z,73.49
2018-07-01T07:49:53.555Z,71.78
2018-07-01T07:50:53.708Z,71.53
2018-07-01T07:51:53.866Z,71.53
2018-07-01T07:52:54.021Z,73.73
2018-07-01T07:53:54.176Z,70.80
2018-07-01T07:54:54.332Z,72.51
2018-07-01T07:55:54.486Z,73.00
2018-07-01T07:56:54.642Z,70.07
2018-07-01T07:57:54.802Z,72.02
2018-07-01T07:58:54.957Z,72.51
2018-07-01T07:59:55.120Z,71.04
2018-07-01T08:00:55.279Z,70.80
2018-07-01T08:02:55.587Z,71.78
2018-07-01T08:03:55.740Z,70.07
2018-07-01T08:04:55.895Z,71.29
2018-07-01T08:05:56.052Z,71.53
2018-07-01T08:06:56.210Z,71.29
2018-07-01T08:07:56.368Z,70.56
2018-07-01T08:08:56.522Z,74.95
2018-07-01T08:09:56.678Z,73.73
2018-07-01T08:10:56.836Z,71.29
2018-07-01T08:11:56.990Z,71.29
2018-07-01T08:12:57.154Z,71.53
2018-07-01T08:13:57.306Z,72.51
2018-07-01T08:14:57.458Z,72.51
2018-07-01T08:15:57.620Z,71.29
2018-07-01T08:16:57.773Z,72.75
2018-07-01T08:17:57.931Z,72.75
2018-07-01T08:18:58.087Z,74.46
2018-07-01T08:19:58.250Z,72.75
2018-07-01T08:20:58.402Z,72.27
2018-07-01T08:21:58.594Z,73.49
2018-07-01T08:22:58.716Z,72.02
2018-07-01T08:23:58.872Z,72.02
2018-07-01T08:24:59.029Z,71.53
2018-07-01T08:25:59.185Z,71.53
2018-07-01T08:26:59.338Z,72.51
2018-07-01T08:27:59.495Z,73.00
2018-07-01T08:28:59.685Z,71.78
2018-07-01T08:29:59.809Z,71.78
2018-07-01T08:30:59.965Z,71.53
2018-07-01T08:32:00.133Z,71.78
2018-07-01T08:33:00.284Z,71.78
2018-07-01T08:34:00.442Z,71.04
2018-07-01T08:35:00.596Z,80.81
2018-07-01T08:36:00.753Z,75.93
2018-07-01T08:37:00.908Z,76.90
2018-07-01T08:38:01.072Z,73.49
2018-07-01T08:39:01.230Z,77.64
2018-07-01T08:40:01.387Z,73.24
2018-07-01T08:41:01.539Z,74.22
2018-07-01T08:42:01.700Z,77.39
2018-07-01T08:43:01.856Z,73.97
2018-07-01T08:44:02.014Z,74.46
2018-07-01T08:45:02.171Z,73.00
2018-07-01T08:46:02.329Z,72.27
2018-07-01T08:47:02.486Z,74.22
2018-07-01T08:48:02.646Z,76.17
2018-07-01T08:49:02.804Z,72.51
2018-07-01T08:50:02.965Z,71.04
2018-07-01T08:51:03.119Z,71.04
2018-07-01T08:52:03.277Z,73.24
2018-07-01T08:53:03.436Z,72.02
2018-07-01T08:54:03.591Z,69.34
2018-07-01T08:55:03.748Z,70.31
2018-07-01T08:56:03.910Z,84.23
2018-07-01T08:57:04.063Z,84.47
2018-07-01T08:58:04.222Z,83.74
2018-07-01T08:59:04.376Z,81.30
2018-07-01T09:00:04.533Z,72.51
2018-07-01T09:01:04.690Z,78.13
2018-07-01T09:02:04.852Z,80.08
2018-07-01T09:03:05.055Z,75.68
2018-07-01T09:04:05.126Z,71.29
2018-07-01T09:05:05.284Z,70.80
2018-07-01T09:06:05.445Z,71.53
2018-07-01T09:07:05.599Z,73.00
2018-07-01T09:08:05.756Z,72.75
2018-07-01T09:09:05.916Z,71.78
2018-07-01T09:10:06.076Z,73.24
2018-07-01T09:11:06.239Z,73.97
2018-07-01T09:12:06.398Z,73.49
2018-07-01T09:13:06.554Z,70.07
2018-07-01T09:14:06.715Z,70.80
2018-07-01T09:15:06.875Z,71.78
2018-07-01T09:16:07.031Z,68.36
2018-07-01T09:17:07.192Z,72.75
2018-07-01T09:18:07.349Z,72.75
2018-07-01T09:19:07.506Z,71.53
2018-07-01T09:20:07.663Z,72.02
2018-07-01T09:21:07.826Z,77.39
2018-07-01T09:22:07.984Z,75.68
2018-07-01T09:23:08.148Z,73.00
2018-07-01T09:24:08.304Z,75.44
2018-07-01T09:25:08.467Z,71.53
2018-07-01T09:26:08.625Z,70.07
2018-07-01T09:27:08.781Z,72.02
2018-07-01T09:28:08.938Z,74.22
2018-07-01T09:29:09.097Z,77.64
2018-07-01T09:30:09.254Z,73.73
2018-07-01T09:31:09.410Z,73.24
2018-07-01T09:32:09.570Z,73.24
2018-07-01T09:33:09.729Z,72.27
2018-07-01T09:34:09.886Z,77.88
2018-07-01T09:35:10.044Z,72.75
2018-07-01T09:36:10.206Z,71.04
2018-07-01T09:37:10.361Z,72.02
2018-07-01T09:38:10.518Z,71.53
2018-07-01T09:39:10.677Z,73.00
2018-07-01T09:40:10.832Z,72.51
2018-07-01T09:41:10.992Z,71.78
2018-07-01T09:42:11.149Z,72.75
2018-07-01T09:43:11.303Z,71.53
2018-07-01T09:44:11.462Z,71.04
2018-07-01T09:45:11.619Z,71.78
2018-07-01T09:46:11.776Z,73.00
2018-07-01T09:47:11.954Z,70.07
2018-07-01T09:48:12.111Z,69.82
2018-07-01T09:49:12.269Z,69.09
2018-07-01T09:50:12.436Z,70.07
2018-07-01T09:51:12.591Z,71.04
2018-07-01T09:52:12.749Z,71.78
2018-07-01T09:53:12.906Z,70.56
2018-07-01T09:54:13.070Z,72.02
2018-07-01T09:55:13.259Z,70.56
2018-07-01T09:56:13.394Z,71.53
2018-07-01T09:57:13.552Z,74.95
2018-07-01T09:58:13.710Z,72.02
2018-07-01T09:59:13.872Z,72.27
2018-07-01T10:00:14.030Z,84.23
2018-07-01T10:01:14.194Z,73.49
2018-07-01T10:02:14.351Z,74.71
2018-07-01T10:03:14.513Z,71.53
2018-07-01T10:04:14.673Z,73.00
2018-07-01T10:05:14.829Z,72.02
2018-07-01T10:06:14.987Z,71.78
2018-07-01T10:07:15.145Z,73.00
2018-07-01T10:08:15.309Z,72.27
2018-07-01T10:09:15.469Z,72.27
2018-07-01T10:10:15.627Z,71.29
2018-07-01T10:11:15.785Z,70.80
2018-07-01T10:12:15.954Z,71.29
2018-07-01T10:13:16.054Z,72.27
2018-07-01T10:14:16.210Z,71.53
2018-07-01T10:15:16.372Z,72.51
2018-07-01T10:16:16.528Z,71.29
2018-07-01T10:17:16.687Z,79.35
2018-07-01T10:18:16.846Z,78.61
2018-07-01T10:19:17.002Z,72.27
2018-07-01T10:20:17.163Z,77.88
2018-07-01T10:21:17.321Z,73.24
2018-07-01T10:22:17.479Z,72.51
2018-07-01T10:23:17.637Z,75.20
2018-07-01T10:24:17.797Z,89.11
2018-07-01T10:25:17.959Z,73.00
2018-07-01T10:26:18.118Z,72.27
2018-07-01T10:27:18.279Z,73.00
2018-07-01T10:28:18.440Z,70.80
2018-07-01T10:29:18.598Z,71.53
2018-07-01T10:30:18.761Z,74.71
2018-07-01T10:31:18.914Z,73.49
2018-07-01T10:32:19.107Z,75.44
2018-07-01T10:33:19.244Z,72.75
2018-07-01T10:34:19.401Z,78.61
2018-07-01T10:35:19.564Z,80.32
2018-07-01T10:36:19.724Z,72.75
2018-07-01T10:37:19.881Z,73.49
2018-07-01T10:38:20.045Z,73.00
2018-07-01T10:39:20.202Z,84.23
2018-07-01T10:40:20.473Z,77.64
2018-07-01T10:41:20.518Z,75.44
2018-07-01T10:42:20.679Z,73.24
2018-07-01T10:43:20.841Z,74.95
2018-07-01T10:44:20.996Z,71.29
2018-07-01T10:45:21.161Z,71.53
2018-07-01T10:46:21.316Z,77.64
2018-07-01T10:47:21.475Z,84.96
2018-07-01T10:48:21.634Z,75.93
2018-07-01T10:49:21.791Z,78.61
2018-07-01T10:50:21.954Z,82.76
2018-07-01T10:51:22.183Z,71.53
2018-07-01T10:52:22.270Z,72.75
2018-07-01T10:53:22.428Z,81.54
2018-07-01T10:54:22.589Z,78.13
2018-07-01T10:55:22.749Z,73.00
2018-07-01T10:56:22.907Z,72.75
2018-07-01T10:57:23.067Z,72.02
2018-07-01T10:58:23.227Z,71.53
2018-07-01T10:59:23.385Z,71.29
2018-07-01T11:00:23.543Z,73.24
2018-07-01T11:01:23.704Z,73.24
2018-07-01T11:02:23.862Z,72.02
2018-07-01T11:03:24.021Z,71.78
2018-07-01T11:04:24.252Z,73.24
2018-07-01T11:05:24.379Z,73.00
2018-07-01T11:06:24.589Z,72.02
2018-07-01T11:07:24.695Z,68.85
2018-07-01T11:08:24.859Z,74.46
2018-07-01T11:09:25.016Z,70.07
2018-07-01T11:10:25.175Z,69.82
2018-07-01T11:11:25.331Z,71.04
2018-07-01T11:12:25.492Z,74.22
2018-07-01T11:13:25.651Z,74.46
2018-07-01T11:14:25.809Z,71.04
2018-07-01T11:15:25.971Z,73.97
2018-07-01T11:16:26.129Z,74.95
2018-07-01T11:17:26.332Z,78.13
2018-07-01T11:18:26.448Z,74.46
2018-07-01T11:19:26.614Z,80.32
2018-07-01T11:20:26.823Z,83.98
2018-07-01T11:21:26.936Z,69.82
2018-07-01T11:22:27.095Z,73.00
2018-07-01T11:23:27.255Z,72.51
2018-07-01T11:24:27.412Z,70.56
2018-07-01T11:25:27.572Z,69.82
2018-07-01T11:26:27.734Z,73.00
2018-07-01T11:27:27.932Z,72.51
2018-07-01T11:28:28.053Z,77.15
2018-07-01T11:29:28.212Z,74.71
2018-07-01T11:30:28.371Z,72.51
2018-07-01T11:31:28.532Z,71.78
2018-07-01T11:32:28.689Z,69.82
2018-07-01T11:33:28.866Z,72.02
2018-07-01T11:34:29.011Z,68.85
2018-07-01T11:35:29.174Z,74.95
2018-07-01T11:36:29.336Z,85.21
2018-07-01T11:37:29.493Z,85.94
2018-07-01T11:38:29.653Z,87.89
2018-07-01T11:39:29.813Z,98.14
2018-07-01T11:40:29.972Z,96.68
2018-07-01T11:41:30.140Z,94.73
2018-07-01T11:42:30.306Z,91.06
2018-07-01T11:43:30.457Z,71.53
2018-07-01T11:44:30.663Z,73.00
2018-07-01T11:45:30.779Z,75.20
2018-07-01T11:46:30.940Z,73.73
2018-07-01T11:47:31.101Z,82.28
2018-07-01T11:48:31.259Z,71.29
2018-07-01T11:49:31.424Z,71.78
2018-07-01T11:50:31.608Z,71.29
2018-07-01T11:51:31.773Z,69.58
2018-07-01T11:52:32.005Z,72.02
2018-07-01T11:53:32.092Z,70.80
2018-07-01T11:54:32.254Z,71.53
2018-07-01T11:55:32.412Z,71.78
2018-07-01T11:56:32.570Z,69.82
2018-07-01T11:57:32.734Z,71.29
2018-07-01T11:58:32.897Z,71.53
2018-07-01T11:59:33.066Z,71.53
2018-07-01T12:00:33.224Z,69.82
2018-07-01T12:01:33.384Z,72.02
2018-07-01T12:02:33.543Z,73.24
2018-07-01T12:03:33.708Z,70.31
2018-07-01T12:04:33.865Z,70.07
2018-07-01T12:05:34.110Z,69.82
2018-07-01T12:06:34.184Z,69.82
2018-07-01T12:07:34.348Z,71.53
2018-07-01T12:08:34.510Z,71.78
2018-07-01T12:09:34.669Z,72.27
2018-07-01T12:10:34.835Z,71.29
2018-07-01T12:11:34.993Z,72.75
2018-07-01T12:12:35.155Z,73.00
2018-07-01T12:13:35.313Z,71.04
2018-07-01T12:14:35.474Z,68.85
2018-07-01T12:15:35.633Z,70.56
2018-07-01T12:16:35.832Z,70.56
2018-07-01T12:17:35.998Z,68.12
2018-07-01T12:18:36.160Z,68.60
2018-07-01T12:19:36.324Z,70.56
2018-07-01T12:20:36.482Z,72.02
2018-07-01T12:21:36.644Z,72.51
2018-07-01T12:22:36.804Z,70.80
2018-07-01T12:23:37.262Z,70.31
2018-07-01T12:24:37.158Z,71.29
2018-07-01T12:25:37.323Z,70.80
2018-07-01T12:26:37.483Z,69.82
2018-07-01T12:27:37.644Z,70.31
2018-07-01T12:28:37.808Z,69.82
2018-07-01T12:29:37.970Z,70.56
2018-07-01T12:30:38.164Z,69.09
2018-07-01T12:31:38.289Z,71.53
2018-07-01T12:32:38.452Z,70.07
2018-07-01T12:33:38.613Z,71.78
2018-07-01T12:34:38.814Z,71.53
2018-07-01T12:35:38.934Z,71.53
2018-07-01T12:36:39.096Z,73.49
2018-07-01T12:37:39.271Z,72.27
2018-07-01T12:38:39.420Z,70.80
2018-07-01T12:39:39.588Z,71.78
2018-07-01T12:40:39.742Z,73.00
2018-07-01T12:41:39.906Z,70.31
2018-07-01T12:42:40.069Z,71.04
2018-07-01T12:43:40.230Z,71.78
2018-07-01T12:44:40.391Z,71.04
2018-07-01T12:45:40.555Z,72.02
2018-07-01T12:46:40.717Z,71.04
2018-07-01T12:47:40.942Z,72.51
2018-07-01T12:48:41.040Z,70.56
2018-07-01T12:49:41.199Z,71.04
2018-07-01T12:50:41.360Z,69.58
2018-07-01T12:51:41.521Z,72.51
2018-07-01T12:52:41.683Z,71.04
2018-07-01T12:53:41.841Z,72.02
2018-07-01T12:54:42.006Z,71.53
2018-07-01T12:55:42.168Z,70.31